createdAt,value
2022-08-05T00:00:00.331Z,5.03
2022-08-05T00:02:28.677Z,4.37
2022-08-05T00:04:57.040Z,4.67
2022-08-05T00:07:58.917Z,4.87
2022-08-05T00:10:12.442Z,4.43
2022-08-05T00:12:56.060Z,5.60
2022-08-05T00:15:55.779Z,8.63
2022-08-05T00:18:21.444Z,4.03
2022-08-05T00:20:50.722Z,4.20
2022-08-05T00:23:44.482Z,4.70
2022-08-05T00:26:07.294Z,4.07
2022-08-05T00:28:35.529Z,5.00
2022-08-05T00:31:04.780Z,4.73
2022-08-05T00:34:54.675Z,4.23
2022-08-05T00:37:10.662Z,4.97
2022-08-05T00:39:13.679Z,4.63
2022-08-05T00:41:55.114Z,5.33
2022-08-05T00:44:30.358Z,4.60
2022-08-05T00:47:02.042Z,4.77
2022-08-05T00:49:44.734Z,4.30
2022-08-05T00:52:28.417Z,5.63
2022-08-05T00:54:56.780Z,4.33
2022-08-05T00:57:25.446Z,4.90
2022-08-05T01:00:10.994Z,5.60
2022-08-05T01:02:38.733Z,4.57
2022-08-05T01:05:10.152Z,4.23
2022-08-05T01:07:37.780Z,4.77
2022-08-05T01:10:30.734Z,4.80
2022-08-05T01:13:13.084Z,5.13
2022-08-05T01:15:56.595Z,4.37
2022-08-05T01:18:29.838Z,4.50
2022-08-05T01:21:37.761Z,4.43
2022-08-05T01:24:22.096Z,5.10
2022-08-05T01:27:24.998Z,4.50
2022-08-05T01:29:58.221Z,4.70
2022-08-05T01:32:29.786Z,4.63
2022-08-05T01:35:03.385Z,4.67
2022-08-05T01:37:44.810Z,4.70
2022-08-05T01:40:18.034Z,7.27
2022-08-05T01:42:47.027Z,5.17
2022-08-05T01:45:16.582Z,6.93
2022-08-05T01:47:46.474Z,4.80
2022-08-05T01:50:29.786Z,5.27
2022-08-05T01:53:04.434Z,5.17
2022-08-05T01:55:36.083Z,5.93
2022-08-05T01:58:13.190Z,6.93
2022-08-05T02:00:49.024Z,5.10
2022-08-05T02:03:34.129Z,6.03
2022-08-05T02:06:37.488Z,6.47
2022-08-05T02:08:58.137Z,6.27
2022-08-05T02:11:32.826Z,5.60
2022-08-05T02:14:08.379Z,6.20
2022-08-05T02:16:46.519Z,6.70
2022-08-05T02:19:25.223Z,5.07
2022-08-05T02:22:25.957Z,5.83
2022-08-05T02:25:03.337Z,5.53
2022-08-05T02:27:58.565Z,5.67
2022-08-05T02:30:26.831Z,5.40
2022-08-05T02:33:00.152Z,5.40
2022-08-05T02:35:37.390Z,5.57
2022-08-05T02:38:09.505Z,5.40
2022-08-05T02:40:41.029Z,5.20
2022-08-05T02:43:11.266Z,6.40
2022-08-05T02:45:51.423Z,5.00
2022-08-05T02:48:28.844Z,5.93
2022-08-05T02:51:00.380Z,5.87
2022-08-05T02:53:38.961Z,7.87
2022-08-05T02:56:09.378Z,5.70
2022-08-05T02:58:43.514Z,5.23
2022-08-05T03:01:17.425Z,5.67
2022-08-05T03:04:02.782Z,5.70
2022-08-05T03:06:54.362Z,6.30
2022-08-05T03:09:36.137Z,5.10
2022-08-05T03:12:04.979Z,5.50
2022-08-05T03:14:32.532Z,5.00
2022-08-05T03:17:00.628Z,5.60
2022-08-05T03:19:34.164Z,6.87
2022-08-05T03:22:04.822Z,5.90
2022-08-05T03:24:47.167Z,5.67
2022-08-05T03:27:19.109Z,7.13
2022-08-05T03:30:07.394Z,5.57
2022-08-05T03:32:34.697Z,5.23
2022-08-05T03:35:04.495Z,5.30
2022-08-05T03:37:46.152Z,5.73
2022-08-05T03:40:15.486Z,9.33
2022-08-05T03:42:59.555Z,6.73
2022-08-05T03:45:57.484Z,5.80
2022-08-05T03:48:26.894Z,4.80
2022-08-05T03:52:36.629Z,6.13
2022-08-05T03:55:51.988Z,6.10
2022-08-05T03:57:41.865Z,5.43
2022-08-05T04:00:16.291Z,5.30
2022-08-05T04:02:58.718Z,5.97
2022-08-05T04:05:35.309Z,5.60
2022-08-05T04:08:14.494Z,5.57
2022-08-05T04:10:53.763Z,5.63
2022-08-05T04:13:22.813Z,5.93
2022-08-05T04:16:04.284Z,5.80
2022-08-05T04:18:34.231Z,6.20
2022-08-05T04:21:03.969Z,6.50
2022-08-05T04:24:06.045Z,5.90
2022-08-05T04:26:20.393Z,5.90
2022-08-05T04:28:51.823Z,6.00
2022-08-05T04:31:20.375Z,6.70
2022-08-05T04:34:18.181Z,6.23
2022-08-05T04:36:44.651Z,10.13
2022-08-05T04:39:13.971Z,6.10
2022-08-05T04:41:41.418Z,6.20
2022-08-05T04:44:09.909Z,6.30
2022-08-05T04:46:38.635Z,5.77
2022-08-05T04:49:12.411Z,8.57
2022-08-05T04:51:44.024Z,5.70
2022-08-05T04:54:12.208Z,6.07
2022-08-05T04:56:40.113Z,9.60
2022-08-05T04:59:22.009Z,5.93
2022-08-05T05:02:35.538Z,7.63
2022-08-05T05:04:47.768Z,6.60
2022-08-05T05:07:18.219Z,6.27
2022-08-05T05:09:52.137Z,7.17
2022-08-05T05:12:21.332Z,6.90
2022-08-05T05:14:50.912Z,6.00
2022-08-05T05:17:23.879Z,6.20
2022-08-05T05:19:55.102Z,6.37
2022-08-05T05:22:26.430Z,8.50
2022-08-05T05:25:00.231Z,7.47
2022-08-05T05:27:41.781Z,6.30
2022-08-05T05:30:30.659Z,6.90
2022-08-05T05:33:03.848Z,6.40
2022-08-05T05:35:42.549Z,5.67
2022-08-05T05:38:13.232Z,7.20
2022-08-05T05:40:49.631Z,6.70
2022-08-05T05:43:22.185Z,6.47
2022-08-05T05:46:12.239Z,7.77
2022-08-05T05:48:44.708Z,6.13
2022-08-05T05:51:19.838Z,6.30
2022-08-05T05:53:57.902Z,5.60
2022-08-05T05:56:31.609Z,6.20
2022-08-05T05:59:07.528Z,6.70
2022-08-05T06:01:40.438Z,7.53
2022-08-05T06:04:24.707Z,5.90
2022-08-05T06:06:52.598Z,8.47
2022-08-05T06:09:24.777Z,5.93
2022-08-05T06:12:00.035Z,6.73
2022-08-05T06:14:30.817Z,6.17
2022-08-05T06:16:58.693Z,7.77
2022-08-05T06:19:34.640Z,6.10
2022-08-05T06:22:07.847Z,6.33
2022-08-05T06:24:41.596Z,7.07
2022-08-05T06:27:20.004Z,7.23
2022-08-05T06:30:17.940Z,7.13
2022-08-05T06:32:48.408Z,6.60
2022-08-05T06:36:03.886Z,7.03
2022-08-05T06:38:10.089Z,6.20
2022-08-05T06:40:44.355Z,9.23
2022-08-05T06:43:58.137Z,6.00
2022-08-05T06:46:07.277Z,7.93
2022-08-05T06:48:55.318Z,8.90
2022-08-05T06:51:29.980Z,6.03
2022-08-05T06:54:03.269Z,6.70
2022-08-05T06:56:34.189Z,9.50
2022-08-05T06:59:09.554Z,7.70
2022-08-05T07:01:40.680Z,8.60
2022-08-05T07:04:08.842Z,5.47
2022-08-05T07:06:36.032Z,5.07
2022-08-05T07:09:04.722Z,7.20
2022-08-05T07:11:37.104Z,6.67
2022-08-05T07:14:30.373Z,6.13
2022-08-05T07:18:08.750Z,6.03
2022-08-05T07:20:34.124Z,5.47
2022-08-05T07:22:38.180Z,5.90
2022-08-05T07:25:23.515Z,5.50
2022-08-05T07:28:00.083Z,7.47
2022-08-05T07:30:39.160Z,10.13
2022-08-05T07:33:15.585Z,6.40
2022-08-05T07:36:03.870Z,6.60
2022-08-05T07:38:34.237Z,5.50
2022-08-05T07:42:07.128Z,6.90
2022-08-05T07:43:57.902Z,7.13
2022-08-05T07:46:31.466Z,6.97
2022-08-05T07:49:05.912Z,9.47
2022-08-05T07:51:40.911Z,8.67
2022-08-05T07:54:23.117Z,7.93
2022-08-05T07:57:01.385Z,7.20
2022-08-05T07:59:39.708Z,10.10
2022-08-05T08:02:16.203Z,7.90
2022-08-05T08:04:49.485Z,6.40
2022-08-05T08:07:22.489Z,7.53
2022-08-05T08:09:52.730Z,6.27
2022-08-05T08:12:33.377Z,6.50
2022-08-05T08:15:09.688Z,7.67
2022-08-05T08:17:46.116Z,7.43
2022-08-05T08:20:43.691Z,9.17
2022-08-05T08:23:07.519Z,7.07
2022-08-05T08:25:59.245Z,7.90
2022-08-05T08:28:36.586Z,6.63
2022-08-05T08:31:08.196Z,8.57
2022-08-05T08:33:38.063Z,5.90
2022-08-05T08:38:57.376Z,5.67
2022-08-05T08:41:52.393Z,5.50
2022-08-05T08:45:21.152Z,6.77
2022-08-05T08:47:47.061Z,6.77
2022-08-05T08:50:22.655Z,6.30
2022-08-05T08:52:51.672Z,5.77
2022-08-05T08:56:02.163Z,5.47
2022-08-05T08:58:10.643Z,10.73
2022-08-05T09:00:42.384Z,6.13
2022-08-05T09:03:16.320Z,6.33
2022-08-05T09:06:08.148Z,5.57
2022-08-05T09:08:40.233Z,7.80
2022-08-05T09:11:12.154Z,8.67
2022-08-05T09:14:09.182Z,5.93
2022-08-05T09:16:30.887Z,6.17
2022-08-05T09:18:59.440Z,5.73
2022-08-05T09:22:17.976Z,6.10
2022-08-05T09:24:16.144Z,8.10
2022-08-05T09:26:50.361Z,7.43
2022-08-05T09:29:19.850Z,5.33
2022-08-05T09:32:41.581Z,5.10
2022-08-05T09:34:58.359Z,6.28
2022-08-05T09:38:18.484Z,5.45
2022-08-05T09:40:33.291Z,7.10
2022-08-05T09:43:08.535Z,5.47
2022-08-05T09:46:06.857Z,5.78
2022-08-05T09:48:33.779Z,5.63
2022-08-05T09:51:03.891Z,6.18
2022-08-05T09:53:54.772Z,7.05
2022-08-05T09:56:33.378Z,6.30
2022-08-05T09:59:04.335Z,5.30
2022-08-05T10:01:33.841Z,7.85
2022-08-05T10:04:10.581Z,5.88
2022-08-05T10:06:40.612Z,6.63
2022-08-05T10:09:27.303Z,6.82
2022-08-05T10:12:18.907Z,5.30
2022-08-05T10:15:20.192Z,6.78
2022-08-05T10:18:12.053Z,5.20
2022-08-05T10:20:51.222Z,6.72
2022-08-05T10:23:59.824Z,5.68
2022-08-05T10:26:32.692Z,8.43
2022-08-05T10:29:02.591Z,6.38
2022-08-05T10:33:02.199Z,7.55
2022-08-05T10:34:17.686Z,6.53
2022-08-05T10:36:53.590Z,7.18
2022-08-05T10:40:03.585Z,9.98
2022-08-05T10:42:33.813Z,7.78
2022-08-05T10:45:21.206Z,8.68
2022-08-05T10:48:27.651Z,7.10
2022-08-05T10:51:05.816Z,8.48
2022-08-05T10:53:55.376Z,7.00
2022-08-05T10:56:26.274Z,7.18
2022-08-05T10:58:53.746Z,7.15
2022-08-05T11:01:55.275Z,6.05
2022-08-05T11:04:26.362Z,6.10
2022-08-05T11:07:04.515Z,6.93
2022-08-05T11:10:09.629Z,6.13
2022-08-05T11:12:38.319Z,6.32
2022-08-05T11:15:59.513Z,5.75
2022-08-05T11:18:30.026Z,7.05
2022-08-05T11:21:02.007Z,6.10
2022-08-05T11:24:05.570Z,6.13
2022-08-05T11:26:28.815Z,10.23
2022-08-05T11:29:13.015Z,8.45
2022-08-05T11:31:57.909Z,6.80
2022-08-05T11:34:51.102Z,7.53
2022-08-05T11:38:26.768Z,6.30
2022-08-05T11:41:01.333Z,6.22
2022-08-05T11:44:06.291Z,6.63
2022-08-05T11:46:58.076Z,6.55
2022-08-05T11:49:38.263Z,5.93
2022-08-05T11:52:11.593Z,8.25
2022-08-05T11:54:41.589Z,7.28
2022-08-05T11:57:25.839Z,7.82
2022-08-05T11:59:55.203Z,6.13
2022-08-05T12:02:33.110Z,6.25
2022-08-05T12:05:07.979Z,5.57
2022-08-05T12:08:03.609Z,5.45
2022-08-05T12:10:45.783Z,6.72
2022-08-05T12:13:28.330Z,5.35
2022-08-05T12:16:17.865Z,6.07
2022-08-05T12:18:48.716Z,5.25
2022-08-05T12:21:30.327Z,4.75
2022-08-05T12:24:09.690Z,4.95
2022-08-05T12:26:39.550Z,5.03
2022-08-05T12:29:17.925Z,4.72
2022-08-05T12:31:54.351Z,5.70
2022-08-05T12:34:37.142Z,5.10
2022-08-05T12:37:21.543Z,4.90
2022-08-05T12:39:52.007Z,4.25
2022-08-05T12:42:25.360Z,4.70
2022-08-05T12:45:11.291Z,6.72
2022-08-05T12:47:43.568Z,5.18
2022-08-05T12:50:26.611Z,4.90
2022-08-05T12:52:59.949Z,4.45
2022-08-05T12:55:33.060Z,6.43
2022-08-05T12:58:50.750Z,4.75
2022-08-05T13:02:03.859Z,4.63
2022-08-05T13:03:42.119Z,5.72
2022-08-05T13:06:15.936Z,4.75
2022-08-05T13:08:50.776Z,4.50
2022-08-05T13:11:25.616Z,4.45
2022-08-05T13:14:19.896Z,4.72
2022-08-05T13:16:58.727Z,4.18
2022-08-05T13:19:51.808Z,6.10
2022-08-05T13:22:29.554Z,7.28
2022-08-05T13:25:00.580Z,4.60
2022-08-05T13:27:38.204Z,4.85
2022-08-05T13:30:33.619Z,5.03
2022-08-05T13:32:56.446Z,4.38
2022-08-05T13:35:43.191Z,5.63
2022-08-05T13:38:20.261Z,4.53
2022-08-05T13:41:00.210Z,3.90
2022-08-05T13:43:45.235Z,4.65
2022-08-05T13:46:16.313Z,6.15
2022-08-05T13:49:00.893Z,3.92
2022-08-05T13:51:40.261Z,4.65
2022-08-05T13:54:12.258Z,4.38
2022-08-05T13:56:51.147Z,4.35
2022-08-05T13:59:24.564Z,3.75
2022-08-05T14:01:57.673Z,4.95
2022-08-05T14:04:54.873Z,4.95
2022-08-05T14:08:00.793Z,4.10
2022-08-05T14:10:28.509Z,4.35
2022-08-05T14:12:57.216Z,4.28
2022-08-05T14:16:09.087Z,4.00
2022-08-05T14:18:17.843Z,4.13
2022-08-05T14:20:49.044Z,4.05
2022-08-05T14:23:25.603Z,6.45
2022-08-05T14:25:58.640Z,4.05
2022-08-05T14:28:28.970Z,5.93
2022-08-05T14:30:57.980Z,4.22
2022-08-05T14:33:25.654Z,4.50
2022-08-05T14:35:54.435Z,4.82
2022-08-05T14:38:31.612Z,4.22
2022-08-05T14:41:06.320Z,3.78
2022-08-05T14:43:58.767Z,4.03
2022-08-05T14:46:28.732Z,4.43
2022-08-05T14:49:03.409Z,6.00
2022-08-05T14:51:35.717Z,6.30
2022-08-05T14:54:27.094Z,4.18
2022-08-05T14:56:50.983Z,5.22
2022-08-05T14:59:21.751Z,4.45
2022-08-05T15:01:50.148Z,5.03
2022-08-05T15:04:22.469Z,5.95
2022-08-05T15:06:51.260Z,5.40
2022-08-05T15:09:51.790Z,3.70
2022-08-05T15:12:16.543Z,5.00
2022-08-05T15:14:50.220Z,4.88
2022-08-05T15:17:45.867Z,6.03
2022-08-05T15:20:19.071Z,5.05
2022-08-05T15:22:54.308Z,13.40
2022-08-05T15:25:41.017Z,4.97
2022-08-05T15:28:13.336Z,4.57
2022-08-05T15:30:46.404Z,4.70
2022-08-05T15:34:18.535Z,6.03
2022-08-05T15:36:06.301Z,3.60
2022-08-05T15:38:44.827Z,3.72
2022-08-05T15:41:22.917Z,4.75
2022-08-05T15:43:51.872Z,3.90
2022-08-05T15:46:24.127Z,3.55
2022-08-05T15:49:00.563Z,5.50
2022-08-05T15:52:03.799Z,4.70
2022-08-05T15:54:17.775Z,4.27
2022-08-05T15:56:45.358Z,3.72
2022-08-05T15:59:21.934Z,4.63
2022-08-05T16:01:53.316Z,4.75
2022-08-05T16:04:25.798Z,4.70
2022-08-05T16:06:55.503Z,3.93
2022-08-05T16:09:24.343Z,3.65
2022-08-05T16:11:53.186Z,5.13
2022-08-05T16:14:22.393Z,3.50
2022-08-05T16:16:50.676Z,4.23
2022-08-05T16:20:02.787Z,4.05
2022-08-05T16:22:10.466Z,8.82
2022-08-05T16:24:41.307Z,3.80
2022-08-05T16:27:18.237Z,4.83
2022-08-05T16:29:50.350Z,4.07
2022-08-05T16:32:23.284Z,5.13
2022-08-05T16:34:58.774Z,4.13
2022-08-05T16:38:03.119Z,4.00
2022-08-05T16:40:26.576Z,5.10
2022-08-05T16:42:57.151Z,4.90
2022-08-05T16:46:05.011Z,4.03
2022-08-05T16:48:12.019Z,6.73
2022-08-05T16:50:54.446Z,4.00
2022-08-05T16:54:02.847Z,6.17
2022-08-05T16:56:10.266Z,4.10
2022-08-05T16:58:41.073Z,4.73
2022-08-05T17:01:09.479Z,4.00
2022-08-05T17:03:38.970Z,6.90
2022-08-05T17:06:06.792Z,7.27
2022-08-05T17:08:52.324Z,4.87
2022-08-05T17:11:25.676Z,5.37
2022-08-05T17:14:00.379Z,5.37
2022-08-05T17:16:36.594Z,4.50
2022-08-05T17:19:07.355Z,4.30
2022-08-05T17:21:39.364Z,4.60
2022-08-05T17:24:19.553Z,4.27
2022-08-05T17:26:57.712Z,8.23
2022-08-05T17:29:33.164Z,5.03
2022-08-05T17:32:01.622Z,5.27
2022-08-05T17:34:30.038Z,6.63
2022-08-05T17:37:00.503Z,6.03
2022-08-05T17:39:34.309Z,4.23
2022-08-05T17:42:18.316Z,4.73
2022-08-05T17:44:50.472Z,6.00
2022-08-05T17:47:22.047Z,3.60
2022-08-05T17:49:52.096Z,5.70
2022-08-05T17:52:31.970Z,10.27
2022-08-05T17:54:59.735Z,13.77
2022-08-05T17:57:27.979Z,9.33
2022-08-05T18:00:05.458Z,11.80
2022-08-05T18:02:34.120Z,13.70
2022-08-05T18:05:07.741Z,12.33
2022-08-05T18:07:41.536Z,6.50
2022-08-05T18:10:14.060Z,9.80
2022-08-05T18:12:49.379Z,6.47
2022-08-05T18:15:17.025Z,12.27
2022-08-05T18:17:59.230Z,11.50
2022-08-05T18:20:32.145Z,6.57
2022-08-05T18:23:09.557Z,7.93
2022-08-05T18:25:45.168Z,8.93
2022-08-05T18:28:16.092Z,5.93
2022-08-05T18:30:45.937Z,7.93
2022-08-05T18:33:23.157Z,7.20
2022-08-05T18:36:03.424Z,7.73
2022-08-05T18:38:36.249Z,5.97
2022-08-05T18:41:57.093Z,7.10
2022-08-05T18:43:55.672Z,6.57
2022-08-05T18:46:26.016Z,6.43
2022-08-05T18:48:56.720Z,7.10
2022-08-05T18:52:04.498Z,5.47
2022-08-05T18:54:31.916Z,6.50
2022-08-05T18:57:03.461Z,10.70
2022-08-05T18:59:42.907Z,6.17
2022-08-05T19:02:27.812Z,6.43
2022-08-05T19:05:02.418Z,7.97
2022-08-05T19:07:47.988Z,7.60
2022-08-05T19:10:17.298Z,9.23
2022-08-05T19:12:46.072Z,7.03
2022-08-05T19:15:57.083Z,9.27
2022-08-05T19:18:10.016Z,7.43
2022-08-05T19:20:46.588Z,7.47
2022-08-05T19:24:04.941Z,7.77
2022-08-05T19:26:03.396Z,8.03
2022-08-05T19:28:33.011Z,8.73
2022-08-05T19:31:01.069Z,10.37
2022-08-05T19:33:33.951Z,9.80
2022-08-05T19:36:05.923Z,7.83
2022-08-05T19:38:35.869Z,9.30
2022-08-05T19:41:07.116Z,9.20
2022-08-05T19:44:05.729Z,9.40
2022-08-05T19:46:29.215Z,9.23
2022-08-05T19:49:01.036Z,8.37
2022-08-05T19:52:05.889Z,7.57
2022-08-05T19:54:26.760Z,10.00
2022-08-05T19:57:06.703Z,7.63
2022-08-05T19:59:56.487Z,7.00
2022-08-05T20:02:27.039Z,8.17
2022-08-05T20:04:59.187Z,8.40
2022-08-05T20:07:46.003Z,7.23
2022-08-05T20:10:19.351Z,6.57
2022-08-05T20:12:49.853Z,6.60
2022-08-05T20:15:23.364Z,6.83
2022-08-05T20:18:10.491Z,6.40
2022-08-05T20:20:56.924Z,6.33
2022-08-05T20:23:44.632Z,5.63
2022-08-05T20:26:15.200Z,4.53
2022-08-05T20:28:49.793Z,4.47
2022-08-05T20:31:28.249Z,5.00
2022-08-05T20:34:04.560Z,3.93
2022-08-05T20:36:31.981Z,3.33
2022-08-05T20:39:00.300Z,3.03
2022-08-05T20:41:44.526Z,3.40
2022-08-05T20:44:30.394Z,3.30
2022-08-05T20:47:03.180Z,4.10
2022-08-05T20:49:37.772Z,2.90
2022-08-05T20:52:10.725Z,2.73
2022-08-05T20:54:55.315Z,2.63
2022-08-05T20:57:43.230Z,3.93
2022-08-05T21:00:40.029Z,3.30
2022-08-05T21:03:06.808Z,2.40
2022-08-05T21:05:54.312Z,1.93
2022-08-05T21:08:32.832Z,2.97
2022-08-05T21:12:06.525Z,2.03
2022-08-05T21:14:02.470Z,2.97
2022-08-05T21:16:30.931Z,3.27
2022-08-05T21:19:00.654Z,2.37
2022-08-05T21:21:39.305Z,2.30
2022-08-05T21:24:12.529Z,3.23
2022-08-05T21:26:41.455Z,3.13
2022-08-05T21:29:12.644Z,2.77
2022-08-05T21:31:44.857Z,2.27
2022-08-05T21:34:12.775Z,1.87
2022-08-05T21:36:42.278Z,2.30
2022-08-05T21:39:14.249Z,2.10
2022-08-05T21:41:52.616Z,2.13
2022-08-05T21:44:28.570Z,2.37
2022-08-05T21:46:58.073Z,3.07
2022-08-05T21:49:48.666Z,3.73
2022-08-05T21:52:23.004Z,2.53
2022-08-05T21:55:06.284Z,2.20
2022-08-05T21:57:35.467Z,2.40
2022-08-05T22:00:06.415Z,4.67
2022-08-05T22:02:41.701Z,2.30
2022-08-05T22:05:11.586Z,2.30
2022-08-05T22:07:59.518Z,2.40
2022-08-05T22:10:28.622Z,3.20
2022-08-05T22:14:05.175Z,2.40
2022-08-05T22:16:00.852Z,2.57
2022-08-05T22:18:42.858Z,2.10
2022-08-05T22:21:19.108Z,2.10
2022-08-05T22:24:12.994Z,3.07
2022-08-05T22:26:59.878Z,3.50
2022-08-05T22:29:30.689Z,2.70
2022-08-05T22:32:02.751Z,3.70
2022-08-05T22:34:34.441Z,2.10
2022-08-05T22:37:05.548Z,2.10
2022-08-05T22:39:34.698Z,2.20
2022-08-05T22:42:12.201Z,2.17
2022-08-05T22:44:48.243Z,2.13
2022-08-05T22:47:29.199Z,2.90
2022-08-05T22:50:21.041Z,3.13
2022-08-05T22:52:50.023Z,2.70
2022-08-05T22:55:22.031Z,4.00
2022-08-05T22:57:51.622Z,3.40
2022-08-05T23:00:21.714Z,4.10
2022-08-05T23:02:51.941Z,3.23
2022-08-05T23:05:22.145Z,2.50
2022-08-05T23:07:50.765Z,2.77
2022-08-05T23:10:20.824Z,2.40
2022-08-05T23:12:54.901Z,3.47
2022-08-05T23:15:26.917Z,2.57
2022-08-05T23:18:00.970Z,3.57
2022-08-05T23:20:32.360Z,3.33
2022-08-05T23:23:00.738Z,3.40
2022-08-05T23:25:52.346Z,3.57
2022-08-05T23:28:21.960Z,3.07
2022-08-05T23:30:53.987Z,3.70
2022-08-05T23:33:26.479Z,3.33
2022-08-05T23:36:13.567Z,3.90
2022-08-05T23:38:42.826Z,4.07
2022-08-05T23:41:11.892Z,4.00
2022-08-05T23:44:05.848Z,3.43
2022-08-05T23:46:29.785Z,3.73
2022-08-05T23:49:00.746Z,2.73
2022-08-05T23:51:53.647Z,3.00
2022-08-05T23:54:26.056Z,4.17
2022-08-05T23:56:55.744Z,3.30
